sensor_id;sensor_type;location;lat;lon;timestamp;P1;durP1;ratioP1;P2;durP2;ratioP2
58992;SDS011;44782;0.000;0.000;2023-04-24T00:01:44;2.83;;;2.10;;
58992;SDS011;44782;0.000;0.000;2023-04-24T00:04:00;2.10;;;1.90;;
58992;SDS011;44782;0.000;0.000;2023-04-24T00:06:16;2.20;;;2.00;;
58992;SDS011;44782;0.000;0.000;2023-04-24T00:08:32;2.27;;;2.03;;
58992;SDS011;44782;0.000;0.000;2023-04-24T00:10:47;2.00;;;1.90;;
58992;SDS011;44782;0.000;0.000;2023-04-24T00:13:03;2.13;;;1.97;;
58992;SDS011;44782;0.000;0.000;2023-04-24T00:15:19;2.20;;;2.00;;
58992;SDS011;44782;0.000;0.000;2023-04-24T00:17:35;1.93;;;1.83;;
58992;SDS011;44782;0.000;0.000;2023-04-24T00:19:50;2.07;;;1.87;;
58992;SDS011;44782;0.000;0.000;2023-04-24T00:22:06;2.00;;;1.90;;
58992;SDS011;44782;0.000;0.000;2023-04-24T00:24:22;2.03;;;1.83;;
58992;SDS011;44782;0.000;0.000;2023-04-24T00:26:38;1.90;;;1.80;;
58992;SDS011;44782;0.000;0.000;2023-04-24T00:28:54;2.03;;;1.83;;
58992;SDS011;44782;0.000;0.000;2023-04-24T00:31:09;2.13;;;1.93;;
58992;SDS011;44782;0.000;0.000;2023-04-24T00:33:25;2.10;;;1.90;;
58992;SDS011;44782;0.000;0.000;2023-04-24T00:35:41;2.00;;;1.83;;
58992;SDS011;44782;0.000;0.000;2023-04-24T00:37:57;1.80;;;1.70;;
58992;SDS011;44782;0.000;0.000;2023-04-24T00:40:13;2.03;;;1.90;;
58992;SDS011;44782;0.000;0.000;2023-04-24T00:42:29;1.80;;;1.70;;
58992;SDS011;44782;0.000;0.000;2023-04-24T00:44:44;2.00;;;1.90;;
58992;SDS011;44782;0.000;0.000;2023-04-24T00:47:01;1.70;;;1.60;;
58992;SDS011;44782;0.000;0.000;2023-04-24T00:49:20;2.07;;;1.87;;
58992;SDS011;44782;0.000;0.000;2023-04-24T00:51:36;2.07;;;1.90;;
58992;SDS011;44782;0.000;0.000;2023-04-24T00:53:52;1.70;;;1.60;;
58992;SDS011;44782;0.000;0.000;2023-04-24T00:56:08;1.80;;;1.70;;
58992;SDS011;44782;0.000;0.000;2023-04-24T00:58:25;1.90;;;1.70;;
58992;SDS011;44782;0.000;0.000;2023-04-24T01:00:41;1.90;;;1.80;;
58992;SDS011;44782;0.000;0.000;2023-04-24T01:02:59;2.03;;;1.77;;
58992;SDS011;44782;0.000;0.000;2023-04-24T01:05:19;1.70;;;1.60;;
58992;SDS011;44782;0.000;0.000;2023-04-24T01:07:35;1.80;;;1.70;;
58992;SDS011;44782;0.000;0.000;2023-04-24T01:09:51;1.70;;;1.60;;
58992;SDS011;44782;0.000;0.000;2023-04-24T01:12:07;1.70;;;1.60;;
58992;SDS011;44782;0.000;0.000;2023-04-24T01:14:24;1.70;;;1.60;;
58992;SDS011;44782;0.000;0.000;2023-04-24T01:16:40;1.63;;;1.53;;
58992;SDS011;44782;0.000;0.000;2023-04-24T01:18:56;1.77;;;1.67;;
58992;SDS011;44782;0.000;0.000;2023-04-24T01:21:13;1.70;;;1.60;;
58992;SDS011;44782;0.000;0.000;2023-04-24T01:23:31;1.57;;;1.47;;
58992;SDS011;44782;0.000;0.000;2023-04-24T01:25:47;1.60;;;1.50;;
58992;SDS011;44782;0.000;0.000;2023-04-24T01:28:04;1.87;;;1.40;;
58992;SDS011;44782;0.000;0.000;2023-04-24T01:30:20;1.53;;;1.43;;
58992;SDS011;44782;0.000;0.000;2023-04-24T01:32:36;1.70;;;1.60;;
58992;SDS011;44782;0.000;0.000;2023-04-24T01:34:52;1.90;;;1.67;;
58992;SDS011;44782;0.000;0.000;2023-04-24T01:37:10;1.77;;;1.67;;
58992;SDS011;44782;0.000;0.000;2023-04-24T01:39:26;1.40;;;1.30;;
58992;SDS011;44782;0.000;0.000;2023-04-24T01:41:43;2.00;;;1.80;;
58992;SDS011;44782;0.000;0.000;2023-04-24T01:43:59;1.43;;;1.33;;
58992;SDS011;44782;0.000;0.000;2023-04-24T01:46:15;1.70;;;1.60;;
58992;SDS011;44782;0.000;0.000;2023-04-24T01:48:30;1.50;;;1.40;;
58992;SDS011;44782;0.000;0.000;2023-04-24T01:50:46;2.27;;;1.80;;
58992;SDS011;44782;0.000;0.000;2023-04-24T01:53:02;1.50;;;1.40;;
58992;SDS011;44782;0.000;0.000;2023-04-24T01:55:18;1.80;;;1.40;;
58992;SDS011;44782;0.000;0.000;2023-04-24T01:57:34;1.77;;;1.40;;
58992;SDS011;44782;0.000;0.000;2023-04-24T01:59:50;1.40;;;1.30;;
58992;SDS011;44782;0.000;0.000;2023-04-24T02:02:06;1.50;;;1.40;;
58992;SDS011;44782;0.000;0.000;2023-04-24T02:04:22;1.40;;;1.30;;
58992;SDS011;44782;0.000;0.000;2023-04-24T02:06:38;1.57;;;1.47;;
58992;SDS011;44782;0.000;0.000;2023-04-24T02:08:54;1.50;;;1.40;;
58992;SDS011;44782;0.000;0.000;2023-04-24T02:11:10;1.40;;;1.30;;
58992;SDS011;44782;0.000;0.000;2023-04-24T02:13:25;1.40;;;1.20;;
58992;SDS011;44782;0.000;0.000;2023-04-24T02:15:41;1.50;;;1.40;;
58992;SDS011;44782;0.000;0.000;2023-04-24T02:17:56;1.40;;;1.30;;
58992;SDS011;44782;0.000;0.000;2023-04-24T02:20:12;1.50;;;1.40;;
58992;SDS011;44782;0.000;0.000;2023-04-24T02:22:28;1.40;;;1.30;;
58992;SDS011;44782;0.000;0.000;2023-04-24T02:24:44;1.47;;;1.37;;
58992;SDS011;44782;0.000;0.000;2023-04-24T02:26:59;1.23;;;1.20;;
58992;SDS011;44782;0.000;0.000;2023-04-24T02:29:16;1.60;;;1.50;;
58992;SDS011;44782;0.000;0.000;2023-04-24T02:31:32;1.53;;;1.43;;
58992;SDS011;44782;0.000;0.000;2023-04-24T02:33:48;1.13;;;1.10;;
58992;SDS011;44782;0.000;0.000;2023-04-24T02:36:04;1.57;;;1.47;;
58992;SDS011;44782;0.000;0.000;2023-04-24T02:38:20;1.33;;;1.30;;
58992;SDS011;44782;0.000;0.000;2023-04-24T02:40:36;1.60;;;1.50;;
58992;SDS011;44782;0.000;0.000;2023-04-24T02:42:51;1.50;;;1.40;;
58992;SDS011;44782;0.000;0.000;2023-04-24T02:45:07;1.50;;;1.40;;
58992;SDS011;44782;0.000;0.000;2023-04-24T02:47:23;1.50;;;1.40;;
58992;SDS011;44782;0.000;0.000;2023-04-24T02:49:38;1.60;;;1.50;;
58992;SDS011;44782;0.000;0.000;2023-04-24T02:51:54;1.30;;;1.20;;
58992;SDS011;44782;0.000;0.000;2023-04-24T02:54:10;1.60;;;1.50;;
58992;SDS011;44782;0.000;0.000;2023-04-24T02:56:25;1.53;;;1.30;;
58992;SDS011;44782;0.000;0.000;2023-04-24T02:58:41;1.47;;;1.37;;
58992;SDS011;44782;0.000;0.000;2023-04-24T03:00:57;1.40;;;1.30;;
58992;SDS011;44782;0.000;0.000;2023-04-24T03:03:13;1.57;;;1.40;;
58992;SDS011;44782;0.000;0.000;2023-04-24T03:05:29;1.30;;;1.20;;
58992;SDS011;44782;0.000;0.000;2023-04-24T03:07:46;1.50;;;1.40;;
58992;SDS011;44782;0.000;0.000;2023-04-24T03:10:01;1.50;;;1.30;;
58992;SDS011;44782;0.000;0.000;2023-04-24T03:12:18;1.30;;;1.20;;
58992;SDS011;44782;0.000;0.000;2023-04-24T03:14:33;1.30;;;1.20;;
58992;SDS011;44782;0.000;0.000;2023-04-24T03:16:49;1.30;;;1.20;;
58992;SDS011;44782;0.000;0.000;2023-04-24T03:19:05;1.40;;;1.30;;
58992;SDS011;44782;0.000;0.000;2023-04-24T03:21:21;1.30;;;1.20;;
58992;SDS011;44782;0.000;0.000;2023-04-24T03:23:37;1.40;;;1.30;;
58992;SDS011;44782;0.000;0.000;2023-04-24T03:25:52;1.37;;;1.27;;
58992;SDS011;44782;0.000;0.000;2023-04-24T03:28:09;1.53;;;1.40;;
58992;SDS011;44782;0.000;0.000;2023-04-24T03:30:25;1.23;;;1.13;;
58992;SDS011;44782;0.000;0.000;2023-04-24T03:32:41;1.50;;;1.40;;
58992;SDS011;44782;0.000;0.000;2023-04-24T03:34:56;1.40;;;1.30;;
58992;SDS011;44782;0.000;0.000;2023-04-24T03:37:13;1.50;;;1.40;;
58992;SDS011;44782;0.000;0.000;2023-04-24T03:39:28;1.50;;;1.40;;
58992;SDS011;44782;0.000;0.000;2023-04-24T03:41:44;1.27;;;1.10;;
58992;SDS011;44782;0.000;0.000;2023-04-24T03:44:00;1.37;;;1.27;;
58992;SDS011;44782;0.000;0.000;2023-04-24T03:46:15;1.53;;;1.30;;
58992;SDS011;44782;0.000;0.000;2023-04-24T03:48:31;1.37;;;1.27;;
58992;SDS011;44782;0.000;0.000;2023-04-24T03:50:47;1.50;;;1.40;;
58992;SDS011;44782;0.000;0.000;2023-04-24T03:53:02;1.63;;;1.40;;
58992;SDS011;44782;0.000;0.000;2023-04-24T03:55:18;1.53;;;1.43;;
58992;SDS011;44782;0.000;0.000;2023-04-24T03:57:34;1.30;;;1.20;;
58992;SDS011;44782;0.000;0.000;2023-04-24T03:59:50;1.40;;;1.30;;
58992;SDS011;44782;0.000;0.000;2023-04-24T04:02:06;1.23;;;1.13;;
58992;SDS011;44782;0.000;0.000;2023-04-24T04:04:22;1.50;;;1.30;;
58992;SDS011;44782;0.000;0.000;2023-04-24T04:06:38;1.20;;;1.10;;
58992;SDS011;44782;0.000;0.000;2023-04-24T04:08:54;1.40;;;1.30;;
58992;SDS011;44782;0.000;0.000;2023-04-24T04:11:09;1.30;;;1.20;;
58992;SDS011;44782;0.000;0.000;2023-04-24T04:13:25;1.33;;;1.20;;
58992;SDS011;44782;0.000;0.000;2023-04-24T04:15:41;1.30;;;1.20;;
58992;SDS011;44782;0.000;0.000;2023-04-24T04:17:57;1.37;;;1.27;;
58992;SDS011;44782;0.000;0.000;2023-04-24T04:20:12;1.40;;;1.30;;
58992;SDS011;44782;0.000;0.000;2023-04-24T04:22:28;1.20;;;1.10;;
58992;SDS011;44782;0.000;0.000;2023-04-24T04:24:44;1.50;;;1.20;;
58992;SDS011;44782;0.000;0.000;2023-04-24T04:27:01;1.17;;;1.07;;
58992;SDS011;44782;0.000;0.000;2023-04-24T04:29:17;1.50;;;1.40;;
58992;SDS011;44782;0.000;0.000;2023-04-24T04:31:35;1.27;;;1.17;;
58992;SDS011;44782;0.000;0.000;2023-04-24T04:33:51;1.27;;;1.17;;
58992;SDS011;44782;0.000;0.000;2023-04-24T04:36:07;1.30;;;1.20;;
58992;SDS011;44782;0.000;0.000;2023-04-24T04:38:23;1.30;;;1.20;;
58992;SDS011;44782;0.000;0.000;2023-04-24T04:40:41;1.17;;;1.10;;
58992;SDS011;44782;0.000;0.000;2023-04-24T04:42:58;1.40;;;1.30;;
58992;SDS011;44782;0.000;0.000;2023-04-24T04:45:13;1.50;;;1.40;;
58992;SDS011;44782;0.000;0.000;2023-04-24T04:47:31;1.63;;;1.30;;
58992;SDS011;44782;0.000;0.000;2023-04-24T04:49:47;1.40;;;1.30;;
58992;SDS011;44782;0.000;0.000;2023-04-24T04:52:03;1.03;;;1.03;;
58992;SDS011;44782;0.000;0.000;2023-04-24T04:54:19;1.40;;;1.30;;
58992;SDS011;44782;0.000;0.000;2023-04-24T04:56:35;1.40;;;1.30;;
58992;SDS011;44782;0.000;0.000;2023-04-24T04:58:50;1.20;;;1.10;;
58992;SDS011;44782;0.000;0.000;2023-04-24T05:01:06;1.20;;;1.20;;
58992;SDS011;44782;0.000;0.000;2023-04-24T05:03:22;1.13;;;1.03;;
58992;SDS011;44782;0.000;0.000;2023-04-24T05:05:37;1.30;;;1.20;;
58992;SDS011;44782;0.000;0.000;2023-04-24T05:07:56;1.43;;;1.33;;
58992;SDS011;44782;0.000;0.000;2023-04-24T05:10:12;1.27;;;1.17;;
58992;SDS011;44782;0.000;0.000;2023-04-24T05:12:28;1.23;;;1.13;;
58992;SDS011;44782;0.000;0.000;2023-04-24T05:14:43;1.30;;;1.20;;
58992;SDS011;44782;0.000;0.000;2023-04-24T05:16:59;1.47;;;1.37;;
58992;SDS011;44782;0.000;0.000;2023-04-24T05:19:15;1.30;;;1.20;;
58992;SDS011;44782;0.000;0.000;2023-04-24T05:21:31;1.60;;;1.30;;
58992;SDS011;44782;0.000;0.000;2023-04-24T05:23:47;1.57;;;1.27;;
58992;SDS011;44782;0.000;0.000;2023-04-24T05:26:03;1.40;;;1.30;;
58992;SDS011;44782;0.000;0.000;2023-04-24T05:28:19;1.73;;;1.20;;
58992;SDS011;44782;0.000;0.000;2023-04-24T05:30:35;2.13;;;1.10;;
58992;SDS011;44782;0.000;0.000;2023-04-24T05:32:51;1.17;;;1.10;;
58992;SDS011;44782;0.000;0.000;2023-04-24T05:35:07;1.57;;;1.33;;
58992;SDS011;44782;0.000;0.000;2023-04-24T05:37:23;1.10;;;1.10;;
58992;SDS011;44782;0.000;0.000;2023-04-24T05:39:39;1.50;;;1.20;;
58992;SDS011;44782;0.000;0.000;2023-04-24T05:41:56;1.37;;;1.10;;
58992;SDS011;44782;0.000;0.000;2023-04-24T05:44:13;1.47;;;1.17;;
58992;SDS011;44782;0.000;0.000;2023-04-24T05:46:28;1.40;;;1.30;;
58992;SDS011;44782;0.000;0.000;2023-04-24T05:48:44;1.30;;;1.20;;
58992;SDS011;44782;0.000;0.000;2023-04-24T05:51:00;1.50;;;1.20;;
58992;SDS011;44782;0.000;0.000;2023-04-24T05:53:16;1.20;;;1.10;;
58992;SDS011;44782;0.000;0.000;2023-04-24T05:55:32;1.67;;;1.30;;
58992;SDS011;44782;0.000;0.000;2023-04-24T05:57:48;1.90;;;1.30;;
58992;SDS011;44782;0.000;0.000;2023-04-24T06:00:04;1.30;;;1.20;;
58992;SDS011;44782;0.000;0.000;2023-04-24T06:02:21;1.47;;;1.30;;
58992;SDS011;44782;0.000;0.000;2023-04-24T06:04:37;1.40;;;1.30;;
58992;SDS011;44782;0.000;0.000;2023-04-24T06:06:52;1.40;;;1.30;;
58992;SDS011;44782;0.000;0.000;2023-04-24T06:09:10;1.63;;;1.30;;
58992;SDS011;44782;0.000;0.000;2023-04-24T06:11:27;1.50;;;1.33;;
58992;SDS011;44782;0.000;0.000;2023-04-24T06:13:43;1.50;;;1.20;;
58992;SDS011;44782;0.000;0.000;2023-04-24T06:15:59;1.57;;;1.30;;
58992;SDS011;44782;0.000;0.000;2023-04-24T06:18:15;1.70;;;1.20;;
58992;SDS011;44782;0.000;0.000;2023-04-24T06:20:30;1.30;;;1.20;;
58992;SDS011;44782;0.000;0.000;2023-04-24T06:22:46;1.40;;;1.30;;
58992;SDS011;44782;0.000;0.000;2023-04-24T06:25:02;1.27;;;1.13;;
58992;SDS011;44782;0.000;0.000;2023-04-24T06:27:18;1.30;;;1.20;;
58992;SDS011;44782;0.000;0.000;2023-04-24T06:29:35;1.30;;;1.20;;
58992;SDS011;44782;0.000;0.000;2023-04-24T06:31:51;1.30;;;1.20;;
58992;SDS011;44782;0.000;0.000;2023-04-24T06:34:06;1.30;;;1.20;;
58992;SDS011;44782;0.000;0.000;2023-04-24T06:36:22;2.20;;;1.17;;
58992;SDS011;44782;0.000;0.000;2023-04-24T06:38:38;1.40;;;1.30;;
58992;SDS011;44782;0.000;0.000;2023-04-24T06:40:53;1.27;;;1.17;;
58992;SDS011;44782;0.000;0.000;2023-04-24T06:43:09;1.57;;;1.33;;
58992;SDS011;44782;0.000;0.000;2023-04-24T06:45:25;1.30;;;1.20;;
58992;SDS011;44782;0.000;0.000;2023-04-24T06:47:41;1.30;;;1.20;;
58992;SDS011;44782;0.000;0.000;2023-04-24T06:49:57;1.40;;;1.30;;
58992;SDS011;44782;0.000;0.000;2023-04-24T06:52:16;1.50;;;1.20;;
58992;SDS011;44782;0.000;0.000;2023-04-24T06:54:32;1.30;;;1.20;;
58992;SDS011;44782;0.000;0.000;2023-04-24T06:56:47;1.43;;;1.33;;
58992;SDS011;44782;0.000;0.000;2023-04-24T06:59:05;1.20;;;1.10;;
58992;SDS011;44782;0.000;0.000;2023-04-24T07:01:21;2.47;;;1.40;;
58992;SDS011;44782;0.000;0.000;2023-04-24T07:03:36;1.40;;;1.30;;
58992;SDS011;44782;0.000;0.000;2023-04-24T07:05:52;1.40;;;1.23;;
58992;SDS011;44782;0.000;0.000;2023-04-24T07:08:10;1.30;;;1.20;;
58992;SDS011;44782;0.000;0.000;2023-04-24T07:10:26;1.50;;;1.40;;
58992;SDS011;44782;0.000;0.000;2023-04-24T07:12:43;1.50;;;1.30;;
58992;SDS011;44782;0.000;0.000;2023-04-24T07:15:00;1.60;;;1.50;;
58992;SDS011;44782;0.000;0.000;2023-04-24T07:17:16;2.10;;;1.40;;
58992;SDS011;44782;0.000;0.000;2023-04-24T07:19:35;1.43;;;1.30;;
58992;SDS011;44782;0.000;0.000;2023-04-24T07:21:51;1.30;;;1.20;;
58992;SDS011;44782;0.000;0.000;2023-04-24T07:24:06;1.57;;;1.47;;
58992;SDS011;44782;0.000;0.000;2023-04-24T07:26:27;1.43;;;1.20;;
58992;SDS011;44782;0.000;0.000;2023-04-24T07:28:44;1.87;;;1.50;;
58992;SDS011;44782;0.000;0.000;2023-04-24T07:31:00;1.60;;;1.50;;
58992;SDS011;44782;0.000;0.000;2023-04-24T07:33:16;1.43;;;1.33;;
58992;SDS011;44782;0.000;0.000;2023-04-24T07:35:32;1.60;;;1.50;;
58992;SDS011;44782;0.000;0.000;2023-04-24T07:37:49;2.03;;;1.60;;
58992;SDS011;44782;0.000;0.000;2023-04-24T07:40:04;1.40;;;1.30;;
58992;SDS011;44782;0.000;0.000;2023-04-24T07:42:21;1.43;;;1.33;;
58992;SDS011;44782;0.000;0.000;2023-04-24T07:44:36;1.40;;;1.30;;
58992;SDS011;44782;0.000;0.000;2023-04-24T07:46:52;1.60;;;1.50;;
58992;SDS011;44782;0.000;0.000;2023-04-24T07:49:08;1.43;;;1.33;;
58992;SDS011;44782;0.000;0.000;2023-04-24T07:51:24;1.40;;;1.30;;
58992;SDS011;44782;0.000;0.000;2023-04-24T07:53:42;1.40;;;1.30;;
58992;SDS011;44782;0.000;0.000;2023-04-24T07:55:58;1.60;;;1.27;;
58992;SDS011;44782;0.000;0.000;2023-04-24T07:58:14;1.73;;;1.40;;
58992;SDS011;44782;0.000;0.000;2023-04-24T08:00:30;1.77;;;1.50;;
58992;SDS011;44782;0.000;0.000;2023-04-24T08:02:46;1.47;;;1.37;;
58992;SDS011;44782;0.000;0.000;2023-04-24T08:05:01;1.50;;;1.40;;
58992;SDS011;44782;0.000;0.000;2023-04-24T08:07:18;1.77;;;1.40;;
58992;SDS011;44782;0.000;0.000;2023-04-24T08:09:34;1.40;;;1.30;;
58992;SDS011;44782;0.000;0.000;2023-04-24T08:11:49;1.53;;;1.43;;
58992;SDS011;44782;0.000;0.000;2023-04-24T08:14:05;1.87;;;1.60;;
58992;SDS011;44782;0.000;0.000;2023-04-24T08:16:21;1.60;;;1.40;;
58992;SDS011;44782;0.000;0.000;2023-04-24T08:18:38;2.17;;;1.50;;
58992;SDS011;44782;0.000;0.000;2023-04-24T08:20:54;1.47;;;1.37;;
58992;SDS011;44782;0.000;0.000;2023-04-24T08:23:11;1.97;;;1.50;;
58992;SDS011;44782;0.000;0.000;2023-04-24T08:25:26;1.73;;;1.50;;
58992;SDS011;44782;0.000;0.000;2023-04-24T08:27:42;1.60;;;1.50;;
58992;SDS011;44782;0.000;0.000;2023-04-24T08:29:58;1.70;;;1.60;;
58992;SDS011;44782;0.000;0.000;2023-04-24T08:32:15;1.80;;;1.70;;
58992;SDS011;44782;0.000;0.000;2023-04-24T08:34:30;1.70;;;1.60;;
58992;SDS011;44782;0.000;0.000;2023-04-24T08:36:46;2.07;;;1.80;;
58992;SDS011;44782;0.000;0.000;2023-04-24T08:39:02;1.70;;;1.60;;
58992;SDS011;44782;0.000;0.000;2023-04-24T08:41:18;1.67;;;1.57;;
58992;SDS011;44782;0.000;0.000;2023-04-24T08:43:34;1.70;;;1.60;;
58992;SDS011;44782;0.000;0.000;2023-04-24T08:45:51;2.30;;;1.60;;
58992;SDS011;44782;0.000;0.000;2023-04-24T08:48:08;2.00;;;1.80;;
58992;SDS011;44782;0.000;0.000;2023-04-24T08:50:26;1.93;;;1.77;;
58992;SDS011;44782;0.000;0.000;2023-04-24T08:52:43;1.70;;;1.60;;
58992;SDS011;44782;0.000;0.000;2023-04-24T08:55:02;2.00;;;1.90;;
58992;SDS011;44782;0.000;0.000;2023-04-24T08:57:18;1.73;;;1.63;;
58992;SDS011;44782;0.000;0.000;2023-04-24T08:59:34;2.00;;;1.90;;
58992;SDS011;44782;0.000;0.000;2023-04-24T09:01:51;1.83;;;1.73;;
58992;SDS011;44782;0.000;0.000;2023-04-24T09:04:08;1.83;;;1.50;;
58992;SDS011;44782;0.000;0.000;2023-04-24T09:06:25;1.60;;;1.50;;
58992;SDS011;44782;0.000;0.000;2023-04-24T09:08:42;1.87;;;1.60;;
58992;SDS011;44782;0.000;0.000;2023-04-24T09:10:58;1.63;;;1.53;;
58992;SDS011;44782;0.000;0.000;2023-04-24T09:13:18;1.93;;;1.83;;
58992;SDS011;44782;0.000;0.000;2023-04-24T09:15:35;2.10;;;1.93;;
58992;SDS011;44782;0.000;0.000;2023-04-24T09:17:55;1.90;;;1.70;;
58992;SDS011;44782;0.000;0.000;2023-04-24T09:20:11;1.97;;;1.87;;
58992;SDS011;44782;0.000;0.000;2023-04-24T09:22:29;1.93;;;1.83;;
58992;SDS011;44782;0.000;0.000;2023-04-24T09:24:45;1.90;;;1.80;;
58992;SDS011;44782;0.000;0.000;2023-04-24T09:27:01;1.90;;;1.80;;
58992;SDS011;44782;0.000;0.000;2023-04-24T09:29:18;1.90;;;1.80;;
58992;SDS011;44782;0.000;0.000;2023-04-24T09:31:34;1.83;;;1.73;;
58992;SDS011;44782;0.000;0.000;2023-04-24T09:34:00;1.70;;;1.60;;
58992;SDS011;44782;0.000;0.000;2023-04-24T09:36:30;1.80;;;1.70;;
58992;SDS011;44782;0.000;0.000;2023-04-24T09:38:52;1.70;;;1.60;;
58992;SDS011;44782;0.000;0.000;2023-04-24T09:41:13;1.73;;;1.63;;
58992;SDS011;44782;0.000;0.000;2023-04-24T09:43:30;2.00;;;1.90;;
58992;SDS011;44782;0.000;0.000;2023-04-24T09:45:46;2.53;;;2.03;;
58992;SDS011;44782;0.000;0.000;2023-04-24T09:48:02;1.90;;;1.80;;
58992;SDS011;44782;0.000;0.000;2023-04-24T09:50:18;2.10;;;1.90;;
58992;SDS011;44782;0.000;0.000;2023-04-24T09:52:34;1.90;;;1.80;;
58992;SDS011;44782;0.000;0.000;2023-04-24T09:54:53;2.27;;;2.07;;
58992;SDS011;44782;0.000;0.000;2023-04-24T09:57:09;1.80;;;1.60;;
58992;SDS011;44782;0.000;0.000;2023-04-24T09:59:25;1.90;;;1.80;;
58992;SDS011;44782;0.000;0.000;2023-04-24T10:01:41;2.20;;;2.00;;
58992;SDS011;44782;0.000;0.000;2023-04-24T10:04:00;2.07;;;1.93;;
58992;SDS011;44782;0.000;0.000;2023-04-24T10:06:16;2.33;;;2.00;;
58992;SDS011;44782;0.000;0.000;2023-04-24T10:08:36;2.40;;;2.20;;
58992;SDS011;44782;0.000;0.000;2023-04-24T10:10:52;2.00;;;1.90;;
58992;SDS011;44782;0.000;0.000;2023-04-24T10:13:11;1.90;;;1.80;;
58992;SDS011;44782;0.000;0.000;2023-04-24T10:15:29;2.33;;;2.13;;
58992;SDS011;44782;0.000;0.000;2023-04-24T10:17:45;1.90;;;1.80;;
58992;SDS011;44782;0.000;0.000;2023-04-24T10:20:08;2.40;;;2.20;;
58992;SDS011;44782;0.000;0.000;2023-04-24T10:22:25;2.33;;;2.00;;
58992;SDS011;44782;0.000;0.000;2023-04-24T10:24:42;2.47;;;2.10;;
58992;SDS011;44782;0.000;0.000;2023-04-24T10:26:59;2.20;;;2.00;;
58992;SDS011;44782;0.000;0.000;2023-04-24T10:29:17;2.00;;;1.90;;
58992;SDS011;44782;0.000;0.000;2023-04-24T10:31:33;2.20;;;2.00;;
58992;SDS011;44782;0.000;0.000;2023-04-24T10:33:49;2.30;;;2.10;;
58992;SDS011;44782;0.000;0.000;2023-04-24T10:36:11;2.40;;;2.20;;
58992;SDS011;44782;0.000;0.000;2023-04-24T10:38:29;2.03;;;1.93;;
58992;SDS011;44782;0.000;0.000;2023-04-24T10:40:46;2.30;;;2.10;;
58992;SDS011;44782;0.000;0.000;2023-04-24T10:43:03;2.00;;;1.90;;
58992;SDS011;44782;0.000;0.000;2023-04-24T10:45:25;2.60;;;2.40;;
58992;SDS011;44782;0.000;0.000;2023-04-24T10:47:41;2.50;;;2.30;;
58992;SDS011;44782;0.000;0.000;2023-04-24T10:49:59;2.40;;;2.20;;
58992;SDS011;44782;0.000;0.000;2023-04-24T10:52:15;2.27;;;2.17;;
58992;SDS011;44782;0.000;0.000;2023-04-24T10:59:34;2.30;;;2.20;;
58992;SDS011;44782;0.000;0.000;2023-04-24T11:01:52;2.50;;;2.30;;
58992;SDS011;44782;0.000;0.000;2023-04-24T11:04:10;2.03;;;1.93;;
58992;SDS011;44782;0.000;0.000;2023-04-24T11:06:29;2.47;;;2.20;;
58992;SDS011;44782;0.000;0.000;2023-04-24T11:08:49;2.23;;;2.13;;
58992;SDS011;44782;0.000;0.000;2023-04-24T11:18:37;2.00;;;1.90;;
58992;SDS011;44782;0.000;0.000;2023-04-24T11:20:54;2.27;;;2.07;;
58992;SDS011;44782;0.000;0.000;2023-04-24T11:23:11;2.07;;;1.97;;
58992;SDS011;44782;0.000;0.000;2023-04-24T11:25:29;2.23;;;2.07;;
58992;SDS011;44782;0.000;0.000;2023-04-24T11:27:47;2.23;;;2.13;;
58992;SDS011;44782;0.000;0.000;2023-04-24T11:30:04;2.40;;;2.20;;
58992;SDS011;44782;0.000;0.000;2023-04-24T11:32:24;2.30;;;2.10;;
58992;SDS011;44782;0.000;0.000;2023-04-24T11:34:40;2.23;;;2.13;;
58992;SDS011;44782;0.000;0.000;2023-04-24T11:36:56;2.23;;;2.10;;
58992;SDS011;44782;0.000;0.000;2023-04-24T11:39:12;2.30;;;2.10;;
58992;SDS011;44782;0.000;0.000;2023-04-24T11:41:28;2.10;;;2.00;;
58992;SDS011;44782;0.000;0.000;2023-04-24T11:43:45;2.40;;;2.13;;
58992;SDS011;44782;0.000;0.000;2023-04-24T11:46:03;2.03;;;1.90;;
58992;SDS011;44782;0.000;0.000;2023-04-24T11:48:19;1.93;;;1.83;;
58992;SDS011;44782;0.000;0.000;2023-04-24T11:50:36;2.23;;;2.13;;
58992;SDS011;44782;0.000;0.000;2023-04-24T11:52:51;2.00;;;1.90;;
58992;SDS011;44782;0.000;0.000;2023-04-24T11:55:12;1.83;;;1.73;;
58992;SDS011;44782;0.000;0.000;2023-04-24T11:57:47;2.00;;;1.90;;
58992;SDS011;44782;0.000;0.000;2023-04-24T12:00:05;1.97;;;1.87;;
58992;SDS011;44782;0.000;0.000;2023-04-24T12:02:23;1.97;;;1.87;;
58992;SDS011;44782;0.000;0.000;2023-04-24T12:04:40;2.30;;;2.10;;
58992;SDS011;44782;0.000;0.000;2023-04-24T12:07:02;2.20;;;1.97;;
58992;SDS011;44782;0.000;0.000;2023-04-24T12:09:19;2.07;;;1.97;;
58992;SDS011;44782;0.000;0.000;2023-04-24T12:11:35;2.27;;;2.10;;
58992;SDS011;44782;0.000;0.000;2023-04-24T12:13:51;2.10;;;2.00;;
58992;SDS011;44782;0.000;0.000;2023-04-24T12:16:07;2.07;;;1.97;;
58992;SDS011;44782;0.000;0.000;2023-04-24T12:18:23;2.10;;;2.00;;
58992;SDS011;44782;0.000;0.000;2023-04-24T12:20:40;1.93;;;1.83;;
58992;SDS011;44782;0.000;0.000;2023-04-24T12:22:56;2.13;;;1.90;;
58992;SDS011;44782;0.000;0.000;2023-04-24T12:25:17;3.03;;;2.10;;
58992;SDS011;44782;0.000;0.000;2023-04-24T12:27:34;1.90;;;1.80;;
58992;SDS011;44782;0.000;0.000;2023-04-24T12:29:55;2.07;;;1.90;;
58992;SDS011;44782;0.000;0.000;2023-04-24T12:32:20;2.10;;;1.90;;
58992;SDS011;44782;0.000;0.000;2023-04-24T12:34:36;2.20;;;2.10;;
58992;SDS011;44782;0.000;0.000;2023-04-24T12:36:52;1.93;;;1.83;;
58992;SDS011;44782;0.000;0.000;2023-04-24T12:39:14;2.10;;;2.00;;
58992;SDS011;44782;0.000;0.000;2023-04-24T12:41:34;2.50;;;2.30;;
58992;SDS011;44782;0.000;0.000;2023-04-24T12:43:50;2.00;;;1.90;;
58992;SDS011;44782;0.000;0.000;2023-04-24T12:46:07;2.20;;;2.10;;
58992;SDS011;44782;0.000;0.000;2023-04-24T12:48:23;2.00;;;1.90;;
58992;SDS011;44782;0.000;0.000;2023-04-24T12:50:38;2.20;;;2.10;;
58992;SDS011;44782;0.000;0.000;2023-04-24T12:52:54;2.27;;;2.10;;
58992;SDS011;44782;0.000;0.000;2023-04-24T12:55:10;2.20;;;2.00;;
58992;SDS011;44782;0.000;0.000;2023-04-24T12:57:30;2.30;;;2.10;;
58992;SDS011;44782;0.000;0.000;2023-04-24T12:59:46;2.10;;;2.00;;
58992;SDS011;44782;0.000;0.000;2023-04-24T13:02:01;2.40;;;2.20;;
58992;SDS011;44782;0.000;0.000;2023-04-24T13:04:17;2.50;;;2.30;;
58992;SDS011;44782;0.000;0.000;2023-04-24T13:06:33;2.13;;;2.00;;
58992;SDS011;44782;0.000;0.000;2023-04-24T13:08:49;2.13;;;2.03;;
58992;SDS011;44782;0.000;0.000;2023-04-24T13:11:06;2.47;;;2.27;;
58992;SDS011;44782;0.000;0.000;2023-04-24T13:13:22;1.87;;;1.77;;
58992;SDS011;44782;0.000;0.000;2023-04-24T13:15:37;2.20;;;2.10;;
58992;SDS011;44782;0.000;0.000;2023-04-24T13:17:53;2.40;;;2.20;;
58992;SDS011;44782;0.000;0.000;2023-04-24T13:20:09;2.00;;;1.90;;
58992;SDS011;44782;0.000;0.000;2023-04-24T13:22:25;2.40;;;2.20;;
58992;SDS011;44782;0.000;0.000;2023-04-24T13:24:41;2.07;;;1.97;;
58992;SDS011;44782;0.000;0.000;2023-04-24T13:26:57;2.10;;;1.90;;
58992;SDS011;44782;0.000;0.000;2023-04-24T13:29:12;2.57;;;2.17;;
58992;SDS011;44782;0.000;0.000;2023-04-24T13:31:28;2.23;;;2.00;;
58992;SDS011;44782;0.000;0.000;2023-04-24T13:33:44;2.10;;;1.90;;
58992;SDS011;44782;0.000;0.000;2023-04-24T13:36:00;1.87;;;1.77;;
58992;SDS011;44782;0.000;0.000;2023-04-24T13:38:15;1.90;;;1.80;;
58992;SDS011;44782;0.000;0.000;2023-04-24T13:40:31;2.37;;;1.90;;
58992;SDS011;44782;0.000;0.000;2023-04-24T13:42:48;2.17;;;1.77;;
58992;SDS011;44782;0.000;0.000;2023-04-24T13:45:03;2.50;;;1.90;;
58992;SDS011;44782;0.000;0.000;2023-04-24T13:47:20;1.80;;;1.70;;
58992;SDS011;44782;0.000;0.000;2023-04-24T13:49:35;1.80;;;1.70;;
58992;SDS011;44782;0.000;0.000;2023-04-24T13:51:51;1.80;;;1.70;;
58992;SDS011;44782;0.000;0.000;2023-04-24T13:54:08;1.80;;;1.70;;
58992;SDS011;44782;0.000;0.000;2023-04-24T13:56:24;1.77;;;1.67;;
58992;SDS011;44782;0.000;0.000;2023-04-24T13:58:39;1.93;;;1.83;;
58992;SDS011;44782;0.000;0.000;2023-04-24T14:00:55;1.80;;;1.70;;
58992;SDS011;44782;0.000;0.000;2023-04-24T14:03:11;1.60;;;1.50;;
58992;SDS011;44782;0.000;0.000;2023-04-24T14:05:27;1.70;;;1.60;;
58992;SDS011;44782;0.000;0.000;2023-04-24T14:07:42;1.70;;;1.60;;